Terminal Aerodrome Forecast
Issued by NWS

Home | Current Version | Previous Version | Text Only | Print | Product List | Glossary On
Versions: 1 2 3 4 5 6 7 8 9 10 11 12 13 14 15 16 17 18 19 20
000
FTAK31 PAJN 231128
TAFAWG
TAF
PAWG 231128Z 2312/2412 27004KT 6SM -SN BR OVC008
     FM231600 11006KT 6SM -RASN SCT010 OVC025
     FM231900 13012KT 6SM -RASN BR SCT015 OVC025 WS020/15030KT
      AMD LTD TO CLD VIS AND WIND 2312/2315=

USA.gov is the U.S. government's official web portal to all federal, state and local government web resources and services.